Terminal Aerodrome Forecast
Issued by NWS

Home | Current Version | Previous Version | Text Only | Print | Product List | Glossary On
Versions: 1 2 3 4 5 6 7 8 9 10 11 12 13 14 15 16
502
FTUS42 KILM 040521
TAFCRE
TAF
KCRE 040521Z 0406/0506 04003KT P6SM OVC090
     FM041400 04009KT P6SM OVC070
     FM041900 04007KT P6SM -RA OVC060
     FM042200 04007KT 4SM -RA BKN020 OVC040
     FM050100 06006KT 3SM -RA BKN008=

USA.gov is the U.S. government's official web portal to all federal, state and local government web resources and services.